createdAt,value
2019-05-29T00:01:18.580Z,5.03
2019-05-29T00:03:43.380Z,6.60
2019-05-29T00:06:12.429Z,5.73
2019-05-29T00:08:40.970Z,5.80
2019-05-29T00:11:10.146Z,5.67
2019-05-29T00:13:38.696Z,5.87
2019-05-29T00:16:08.193Z,5.77
2019-05-29T00:18:36.849Z,6.80
2019-05-29T00:21:06.278Z,7.53
2019-05-29T00:23:34.767Z,7.87
2019-05-29T00:26:03.169Z,8.33
2019-05-29T00:28:31.595Z,8.43
2019-05-29T00:31:00.002Z,8.70
2019-05-29T00:33:28.429Z,8.60
2019-05-29T00:35:56.814Z,9.17
2019-05-29T00:38:25.249Z,8.67
2019-05-29T00:40:53.665Z,9.30
2019-05-29T00:43:22.077Z,8.70
2019-05-29T00:45:50.487Z,8.63
2019-05-29T00:48:18.916Z,9.30
2019-05-29T00:50:47.307Z,9.00
2019-05-29T00:53:16.397Z,8.87
2019-05-29T00:55:44.918Z,9.13
2019-05-29T00:58:13.340Z,9.47
2019-05-29T01:00:41.891Z,9.43
2019-05-29T01:03:11.543Z,8.87
2019-05-29T01:05:40.092Z,8.97
2019-05-29T01:08:08.507Z,9.60
2019-05-29T01:10:36.963Z,10.73
2019-05-29T01:13:05.375Z,10.20
2019-05-29T01:15:33.780Z,10.20
2019-05-29T01:18:02.215Z,9.77
2019-05-29T01:20:30.656Z,10.10
2019-05-29T01:22:59.074Z,9.83
2019-05-29T01:25:27.472Z,10.20
2019-05-29T01:27:55.899Z,10.60
2019-05-29T01:30:24.295Z,9.80
2019-05-29T01:32:52.713Z,9.50
2019-05-29T01:35:22.017Z,9.87
2019-05-29T01:37:50.524Z,10.30
2019-05-29T01:40:24.702Z,10.40
2019-05-29T01:42:50.144Z,10.13
2019-05-29T01:45:19.477Z,11.17
2019-05-29T01:47:47.935Z,10.57
2019-05-29T01:50:17.671Z,11.03
2019-05-29T01:52:46.319Z,11.30
2019-05-29T01:55:15.724Z,11.17
2019-05-29T01:57:44.243Z,9.80
2019-05-29T02:00:15.633Z,9.70
2019-05-29T02:02:44.171Z,9.77
2019-05-29T02:05:12.737Z,10.23
2019-05-29T02:07:41.152Z,10.97
2019-05-29T02:10:09.645Z,10.33
2019-05-29T02:12:38.047Z,11.13
2019-05-29T02:15:22.678Z,10.43
2019-05-29T02:17:37.537Z,10.93
2019-05-29T02:20:07.828Z,10.33
2019-05-29T02:22:36.229Z,11.13
2019-05-29T02:25:08.403Z,10.00
2019-05-29T02:27:36.813Z,10.80
2019-05-29T02:30:07.091Z,10.03
2019-05-29T02:32:35.489Z,10.10
2019-05-29T02:35:05.967Z,10.20
2019-05-29T02:37:34.366Z,10.87
2019-05-29T02:40:02.863Z,10.67
2019-05-29T02:42:31.331Z,10.33
2019-05-29T02:44:59.747Z,10.47
2019-05-29T02:47:29.764Z,9.83
2019-05-29T02:49:58.313Z,11.70
2019-05-29T02:52:28.563Z,11.40
2019-05-29T02:54:56.856Z,10.07
2019-05-29T02:57:26.767Z,10.47
2019-05-29T02:59:55.472Z,10.77
2019-05-29T03:02:25.377Z,10.40
2019-05-29T03:04:54.011Z,11.10
2019-05-29T03:07:24.253Z,10.17
2019-05-29T03:09:52.943Z,11.10
2019-05-29T03:12:22.761Z,11.50
2019-05-29T03:14:51.362Z,11.37
2019-05-29T03:17:19.769Z,10.77
2019-05-29T03:19:48.204Z,11.57
2019-05-29T03:22:16.609Z,10.67
2019-05-29T03:24:45.032Z,10.80
2019-05-29T03:27:13.438Z,11.73
2019-05-29T03:29:41.855Z,10.40
2019-05-29T03:32:13.944Z,11.03
2019-05-29T03:34:46.557Z,11.07
2019-05-29T03:37:10.601Z,11.73
2019-05-29T03:39:39.024Z,10.90
2019-05-29T03:42:07.443Z,11.10
2019-05-29T03:44:35.856Z,10.57
2019-05-29T03:47:04.833Z,10.43
2019-05-29T03:49:33.705Z,11.00
2019-05-29T03:52:03.804Z,11.20
2019-05-29T03:54:33.752Z,10.70
2019-05-29T03:57:02.344Z,11.47
2019-05-29T03:59:30.790Z,10.57
2019-05-29T04:01:59.241Z,11.63
2019-05-29T04:04:29.013Z,10.13
2019-05-29T04:06:57.546Z,10.80
2019-05-29T04:09:27.130Z,10.50
2019-05-29T04:11:55.822Z,10.80
2019-05-29T04:14:24.416Z,10.93
2019-05-29T04:16:59.831Z,10.33
2019-05-29T04:19:23.942Z,10.57
2019-05-29T04:21:55.766Z,11.07
2019-05-29T04:24:27.944Z,10.77
2019-05-29T04:26:57.820Z,11.00
2019-05-29T04:29:27.938Z,10.70
2019-05-29T04:31:56.435Z,10.30
2019-05-29T04:34:24.856Z,10.70
2019-05-29T04:36:53.263Z,10.10
2019-05-29T04:39:21.684Z,10.80
2019-05-29T04:41:50.092Z,11.00
2019-05-29T04:44:18.513Z,17.40
2019-05-29T04:46:46.925Z,10.77
2019-05-29T04:49:20.011Z,10.10
2019-05-29T04:51:45.469Z,9.53
2019-05-29T04:54:13.892Z,10.33
2019-05-29T04:56:42.287Z,11.47
2019-05-29T04:59:10.706Z,11.53
2019-05-29T05:01:39.348Z,9.57
2019-05-29T05:04:07.875Z,9.87
2019-05-29T05:06:37.300Z,10.10
2019-05-29T05:09:07.511Z,9.77
2019-05-29T05:11:35.939Z,9.43
2019-05-29T05:14:05.681Z,9.63
2019-05-29T05:16:34.091Z,9.37
2019-05-29T05:19:02.500Z,9.13
2019-05-29T05:21:31.975Z,12.70
2019-05-29T05:24:00.458Z,9.43
2019-05-29T05:26:29.986Z,8.87
2019-05-29T05:28:58.564Z,9.10
2019-05-29T05:31:26.997Z,9.20
2019-05-29T05:33:55.406Z,9.20
2019-05-29T05:36:23.815Z,8.90
2019-05-29T05:38:52.219Z,8.27
2019-05-29T05:41:20.635Z,8.70
2019-05-29T05:43:49.039Z,7.70
2019-05-29T05:46:17.493Z,8.67
2019-05-29T05:48:45.944Z,8.23
2019-05-29T05:51:14.364Z,8.30
2019-05-29T05:53:42.765Z,8.87
2019-05-29T05:56:11.361Z,8.23
2019-05-29T05:58:40.011Z,7.27
2019-05-29T06:01:08.460Z,7.47
2019-05-29T06:03:37.910Z,7.40
2019-05-29T06:06:06.527Z,7.20
2019-05-29T06:08:36.057Z,7.63
2019-05-29T06:11:04.751Z,7.70
2019-05-29T06:13:34.142Z,7.80
2019-05-29T06:16:02.664Z,7.37
2019-05-29T06:18:32.268Z,7.17
2019-05-29T06:21:00.781Z,7.00
2019-05-29T06:23:29.240Z,7.30
2019-05-29T06:26:00.022Z,8.27
2019-05-29T06:28:27.780Z,9.80
2019-05-29T06:30:56.207Z,7.30
2019-05-29T06:33:24.604Z,7.53
2019-05-29T06:35:53.030Z,9.73
2019-05-29T06:38:21.443Z,6.63
2019-05-29T06:40:49.944Z,7.23
2019-05-29T06:43:25.837Z,6.73
2019-05-29T06:45:55.572Z,7.57
2019-05-29T06:48:41.391Z,7.47
2019-05-29T06:50:57.879Z,6.20
2019-05-29T06:53:26.309Z,6.33
2019-05-29T06:55:56.225Z,6.73
2019-05-29T06:58:24.876Z,6.40
2019-05-29T07:00:53.273Z,6.60
2019-05-29T07:03:21.696Z,6.40
2019-05-29T07:05:52.564Z,6.50
2019-05-29T07:08:35.201Z,6.07
2019-05-29T07:10:50.457Z,7.03
2019-05-29T07:13:18.872Z,6.73
2019-05-29T07:15:47.540Z,6.20
2019-05-29T07:18:16.159Z,6.23
2019-05-29T07:20:44.860Z,7.30
2019-05-29T07:23:13.369Z,6.30
2019-05-29T07:25:42.893Z,6.10
2019-05-29T07:28:11.459Z,5.97
2019-05-29T07:30:42.729Z,6.10
2019-05-29T07:33:09.996Z,6.23
2019-05-29T07:35:39.272Z,6.40
2019-05-29T07:38:07.901Z,6.20
2019-05-29T07:40:38.232Z,6.33
2019-05-29T07:43:06.439Z,5.90
2019-05-29T07:45:34.849Z,5.73
2019-05-29T07:48:03.288Z,5.87
2019-05-29T07:50:31.696Z,5.30
2019-05-29T07:53:00.120Z,6.03
2019-05-29T07:55:28.611Z,6.13
2019-05-29T07:57:57.100Z,5.70
2019-05-29T08:00:35.230Z,5.80
2019-05-29T08:02:55.727Z,6.40
2019-05-29T08:05:24.153Z,5.57
2019-05-29T08:07:52.559Z,5.53
2019-05-29T08:10:21.227Z,5.83
2019-05-29T08:12:54.251Z,6.03
2019-05-29T08:15:19.830Z,7.57
2019-05-29T08:17:48.305Z,6.00
2019-05-29T08:20:16.864Z,6.17
2019-05-29T08:22:46.406Z,5.57
2019-05-29T08:25:15.103Z,5.40
2019-05-29T08:27:44.738Z,6.30
2019-05-29T08:30:13.628Z,6.13
2019-05-29T08:32:43.673Z,5.23
2019-05-29T08:35:12.251Z,6.00
2019-05-29T08:37:40.828Z,6.33
2019-05-29T08:40:10.170Z,6.13
2019-05-29T08:42:38.665Z,5.70
2019-05-29T08:45:08.741Z,6.23
2019-05-29T08:47:37.176Z,5.90
2019-05-29T08:50:18.058Z,5.43
2019-05-29T08:52:36.288Z,5.17
2019-05-29T08:55:06.740Z,5.03
2019-05-29T08:57:35.159Z,5.93
2019-05-29T09:00:06.355Z,6.30
2019-05-29T09:02:34.784Z,5.10
2019-05-29T09:05:04.867Z,5.30
2019-05-29T09:07:33.337Z,4.40
2019-05-29T09:10:01.830Z,4.70
2019-05-29T09:12:30.307Z,4.80
2019-05-29T09:14:58.815Z,5.17
2019-05-29T09:17:27.283Z,4.87
2019-05-29T09:19:55.698Z,4.97
2019-05-29T09:22:24.111Z,4.63
2019-05-29T09:24:52.511Z,9.23
2019-05-29T09:27:21.207Z,4.87
2019-05-29T09:29:49.779Z,5.20
2019-05-29T09:32:24.809Z,4.90
2019-05-29T09:34:48.345Z,5.37
2019-05-29T09:37:17.397Z,5.17
2019-05-29T09:39:46.973Z,4.80
2019-05-29T09:42:16.771Z,4.70
2019-05-29T09:44:45.495Z,4.40
2019-05-29T09:47:16.798Z,4.10
2019-05-29T09:49:44.803Z,3.90
2019-05-29T09:52:13.212Z,3.83
2019-05-29T09:54:41.644Z,3.93
2019-05-29T09:57:10.327Z,3.33
2019-05-29T09:59:38.738Z,3.33
2019-05-29T10:02:08.885Z,3.20
2019-05-29T10:04:37.365Z,3.53
2019-05-29T10:07:05.784Z,3.50
2019-05-29T10:09:34.208Z,3.33
2019-05-29T10:12:05.405Z,4.23
2019-05-29T10:14:32.807Z,3.57
2019-05-29T10:17:05.745Z,3.37
2019-05-29T10:19:31.366Z,3.40
2019-05-29T10:22:01.683Z,3.23
2019-05-29T10:24:32.349Z,4.63
2019-05-29T10:27:01.568Z,4.10
2019-05-29T10:29:30.328Z,2.97
2019-05-29T10:31:58.773Z,14.40
2019-05-29T10:34:27.230Z,3.00
2019-05-29T10:36:55.635Z,3.30
2019-05-29T10:39:24.062Z,4.30
2019-05-29T10:41:53.034Z,7.73
2019-05-29T10:44:21.560Z,26.17
2019-05-29T10:46:51.877Z,3.50
2019-05-29T10:49:20.179Z,3.33
2019-05-29T10:52:09.042Z,2.63
2019-05-29T10:54:18.876Z,3.23
2019-05-29T10:56:48.642Z,3.30
2019-05-29T10:59:17.270Z,2.70
2019-05-29T11:01:46.922Z,5.40
2019-05-29T11:04:15.559Z,3.57
2019-05-29T11:06:43.967Z,2.70
2019-05-29T11:09:12.388Z,5.63
2019-05-29T11:11:40.787Z,2.17
2019-05-29T11:14:09.179Z,3.43
2019-05-29T11:16:39.889Z,2.10
2019-05-29T11:19:07.755Z,5.53
2019-05-29T11:21:36.183Z,2.90
2019-05-29T11:24:05.832Z,2.67
2019-05-29T11:26:34.252Z,2.70
2019-05-29T11:29:02.666Z,2.23
2019-05-29T11:31:31.173Z,2.40
2019-05-29T11:33:59.565Z,1.90
2019-05-29T11:36:27.971Z,1.73
2019-05-29T11:38:56.877Z,1.80
2019-05-29T11:41:26.963Z,2.30
2019-05-29T11:43:55.430Z,2.00
2019-05-29T11:46:25.035Z,1.67
2019-05-29T11:48:53.433Z,2.70
2019-05-29T11:51:21.864Z,1.70
2019-05-29T11:53:51.471Z,1.53
2019-05-29T11:56:19.983Z,1.50
2019-05-29T11:58:48.377Z,2.10
2019-05-29T12:01:16.799Z,1.80
2019-05-29T12:04:08.621Z,2.33
2019-05-29T12:06:15.575Z,1.50
2019-05-29T12:08:44.073Z,1.70
2019-05-29T12:11:12.515Z,2.00
2019-05-29T12:13:40.905Z,1.80
2019-05-29T12:16:09.319Z,2.00
2019-05-29T12:18:37.732Z,2.23
2019-05-29T12:21:06.140Z,2.23
2019-05-29T12:23:34.550Z,1.90
2019-05-29T12:26:19.770Z,2.07
2019-05-29T12:28:33.532Z,2.07
2019-05-29T12:31:03.376Z,2.37
2019-05-29T12:33:31.859Z,2.47
2019-05-29T12:36:01.259Z,2.00
2019-05-29T12:38:29.762Z,2.70
2019-05-29T12:40:59.691Z,1.87
2019-05-29T12:43:28.437Z,2.20
2019-05-29T12:45:57.711Z,2.07
2019-05-29T12:48:26.355Z,2.03
2019-05-29T12:50:56.082Z,1.60
2019-05-29T12:53:30.334Z,1.57
2019-05-29T12:55:56.136Z,1.20
2019-05-29T12:58:24.724Z,1.10
2019-05-29T13:00:54.473Z,2.73
2019-05-29T13:03:23.134Z,2.83
2019-05-29T13:05:51.539Z,2.70
2019-05-29T13:08:20.017Z,1.20
2019-05-29T13:10:48.447Z,1.67
2019-05-29T13:13:16.851Z,1.50
2019-05-29T13:15:45.258Z,2.90
2019-05-29T13:18:13.683Z,1.37
2019-05-29T13:20:42.085Z,1.33
2019-05-29T13:23:10.492Z,1.40
2019-05-29T13:25:39.040Z,1.70
2019-05-29T13:28:07.471Z,2.43
2019-05-29T13:30:35.945Z,1.00
2019-05-29T13:33:07.374Z,4.27
2019-05-29T13:35:34.599Z,6.20
2019-05-29T13:38:03.289Z,4.00
2019-05-29T13:40:31.792Z,6.43
2019-05-29T13:43:05.857Z,0.97
2019-05-29T13:45:30.427Z,0.90
2019-05-29T13:47:59.174Z,6.60
2019-05-29T13:50:27.652Z,1.10
2019-05-29T13:52:57.127Z,2.80
2019-05-29T13:55:25.737Z,1.00
2019-05-29T13:57:54.152Z,1.10
2019-05-29T14:00:33.029Z,10.13
2019-05-29T14:02:53.251Z,5.90
2019-05-29T14:05:21.912Z,2.17
2019-05-29T14:07:50.332Z,1.70
2019-05-29T14:10:19.104Z,1.23
2019-05-29T14:12:47.570Z,0.90
2019-05-29T14:15:16.449Z,1.20
2019-05-29T14:17:44.841Z,1.50
2019-05-29T14:20:14.009Z,1.37
2019-05-29T14:22:42.392Z,0.90
2019-05-29T14:25:12.368Z,1.13
2019-05-29T14:27:40.761Z,1.27
2019-05-29T14:30:10.967Z,0.93
2019-05-29T14:32:39.690Z,4.20
2019-05-29T14:35:09.523Z,1.27
2019-05-29T14:37:38.355Z,1.00
2019-05-29T14:40:07.929Z,2.23
2019-05-29T14:42:36.532Z,15.47
2019-05-29T14:45:08.479Z,5.57
2019-05-29T14:47:36.889Z,1.20
2019-05-29T14:50:08.708Z,1.07
2019-05-29T14:52:37.523Z,3.80
2019-05-29T14:55:06.887Z,1.10
2019-05-29T14:57:35.286Z,0.87
2019-05-29T15:00:16.674Z,0.93
2019-05-29T15:02:36.914Z,1.70
2019-05-29T15:05:07.740Z,2.30
2019-05-29T15:07:36.371Z,1.30
2019-05-29T15:10:21.983Z,0.90
2019-05-29T15:12:39.250Z,1.10
2019-05-29T15:15:11.128Z,1.00
2019-05-29T15:17:39.312Z,0.90
2019-05-29T15:20:09.738Z,1.00
2019-05-29T15:22:38.463Z,2.03
2019-05-29T15:25:14.514Z,1.07
2019-05-29T15:27:37.967Z,2.37
2019-05-29T15:30:08.802Z,2.37
2019-05-29T15:32:37.481Z,3.60
2019-05-29T15:35:13.789Z,1.30
2019-05-29T15:37:38.150Z,1.10
2019-05-29T15:40:10.867Z,1.00
2019-05-29T15:42:39.574Z,1.10
2019-05-29T15:45:09.875Z,1.10
2019-05-29T15:47:38.412Z,1.00
2019-05-29T15:50:09.293Z,1.23
2019-05-29T15:52:37.873Z,1.20
2019-05-29T15:55:21.389Z,1.00
2019-05-29T15:57:37.283Z,1.00
2019-05-29T16:00:11.204Z,1.33
2019-05-29T16:02:40.229Z,1.40
2019-05-29T16:05:10.891Z,1.50
2019-05-29T16:07:39.398Z,1.20
2019-05-29T16:10:13.062Z,1.20
2019-05-29T16:12:39.765Z,1.57
2019-05-29T16:15:09.234Z,1.27
2019-05-29T16:17:37.710Z,1.30
2019-05-29T16:20:08.153Z,1.00
2019-05-29T16:22:37.221Z,1.30
2019-05-29T16:25:08.674Z,1.13
2019-05-29T16:27:37.092Z,1.40
2019-05-29T16:30:07.404Z,1.37
2019-05-29T16:32:35.809Z,1.30
2019-05-29T16:35:07.212Z,1.20
2019-05-29T16:37:35.632Z,1.20
2019-05-29T16:40:07.367Z,1.30
2019-05-29T16:42:35.795Z,1.10
2019-05-29T16:45:07.509Z,1.30
2019-05-29T16:47:35.936Z,1.30
2019-05-29T16:50:07.468Z,1.47
2019-05-29T16:52:35.939Z,1.43
2019-05-29T16:55:05.771Z,1.40
2019-05-29T16:57:34.282Z,1.43
2019-05-29T17:00:03.019Z,1.23
2019-05-29T17:02:31.466Z,1.67
2019-05-29T17:04:59.935Z,1.37
2019-05-29T17:07:28.378Z,1.70
2019-05-29T17:09:56.793Z,1.53
2019-05-29T17:12:25.199Z,2.77
2019-05-29T17:14:53.631Z,2.50
2019-05-29T17:17:22.711Z,2.37
2019-05-29T17:19:51.270Z,1.90
2019-05-29T17:22:20.984Z,4.03
2019-05-29T17:24:49.644Z,4.13
2019-05-29T17:27:18.719Z,3.50
2019-05-29T17:29:47.339Z,4.00
2019-05-29T17:32:16.737Z,3.57
2019-05-29T17:34:46.199Z,3.90
2019-05-29T17:37:15.219Z,4.07
2019-05-29T17:39:43.721Z,4.07
2019-05-29T17:42:12.120Z,3.67
2019-05-29T17:44:40.537Z,3.97
2019-05-29T17:47:08.942Z,3.50
2019-05-29T17:49:37.355Z,4.03
2019-05-29T17:52:05.756Z,3.57
2019-05-29T17:54:34.212Z,3.53
2019-05-29T17:57:02.608Z,5.10
2019-05-29T17:59:31.404Z,3.90
2019-05-29T18:01:59.806Z,3.60
2019-05-29T18:04:28.243Z,2.80
2019-05-29T18:06:56.837Z,3.30
2019-05-29T18:09:27.974Z,3.20
2019-05-29T18:11:55.588Z,2.80
2019-05-29T18:14:24.012Z,3.13
2019-05-29T18:16:52.412Z,2.60
2019-05-29T18:19:21.728Z,2.90
2019-05-29T18:21:50.218Z,2.90
2019-05-29T18:24:19.595Z,2.90
2019-05-29T18:26:48.153Z,3.00
2019-05-29T18:29:16.552Z,2.87
2019-05-29T18:31:44.969Z,2.90
2019-05-29T18:34:13.360Z,3.80
2019-05-29T18:36:41.780Z,3.47
2019-05-29T18:39:10.202Z,3.77
2019-05-29T18:41:38.631Z,3.80
2019-05-29T18:44:07.023Z,3.40
2019-05-29T18:46:38.137Z,3.93
2019-05-29T18:49:05.594Z,3.30
2019-05-29T18:51:34.011Z,3.90
2019-05-29T18:54:02.420Z,3.03
2019-05-29T18:56:32.197Z,3.63
2019-05-29T18:59:00.767Z,2.93
2019-05-29T19:01:30.048Z,3.83
2019-05-29T19:03:58.527Z,11.77
2019-05-29T19:06:27.690Z,3.93
2019-05-29T19:08:56.228Z,4.03
2019-05-29T19:11:25.783Z,4.07
2019-05-29T19:13:54.323Z,4.67
2019-05-29T19:16:23.892Z,4.33
2019-05-29T19:18:52.556Z,4.10
2019-05-29T19:21:22.225Z,4.17
2019-05-29T19:23:50.781Z,4.37
2019-05-29T19:26:19.200Z,4.40
2019-05-29T19:28:47.600Z,5.03
2019-05-29T19:31:16.020Z,4.70
2019-05-29T19:33:44.489Z,4.10
2019-05-29T19:36:12.921Z,4.70
2019-05-29T19:38:41.335Z,4.30
2019-05-29T19:41:09.758Z,4.57
2019-05-29T19:43:38.149Z,4.27
2019-05-29T19:46:06.632Z,4.53
2019-05-29T19:48:35.350Z,4.93
2019-05-29T19:51:04.102Z,4.23
2019-05-29T19:53:33.476Z,4.40
2019-05-29T19:56:02.087Z,5.10
2019-05-29T19:58:31.786Z,4.40
2019-05-29T20:01:00.383Z,3.93
2019-05-29T20:03:28.860Z,4.30
2019-05-29T20:05:57.564Z,4.80
2019-05-29T20:08:27.047Z,4.40
2019-05-29T20:10:55.591Z,3.70
2019-05-29T20:13:24.012Z,3.40
2019-05-29T20:15:52.414Z,4.43
2019-05-29T20:18:20.839Z,6.33
2019-05-29T20:20:49.252Z,4.57
2019-05-29T20:23:17.924Z,3.60
2019-05-29T20:25:46.323Z,4.03
2019-05-29T20:28:14.790Z,3.10
2019-05-29T20:30:43.220Z,3.93
2019-05-29T20:33:11.664Z,4.20
2019-05-29T20:35:40.062Z,5.00
2019-05-29T20:38:08.482Z,4.30
2019-05-29T20:40:37.312Z,5.37
2019-05-29T20:43:05.873Z,4.30
2019-05-29T20:45:34.378Z,4.90
2019-05-29T20:48:04.264Z,4.50
2019-05-29T20:50:32.855Z,4.70
2019-05-29T20:53:01.319Z,5.37
2019-05-29T20:55:29.847Z,5.23
2019-05-29T20:57:58.291Z,5.47
2019-05-29T21:00:26.692Z,5.43
2019-05-29T21:02:55.108Z,5.00
2019-05-29T21:05:23.538Z,4.50
2019-05-29T21:07:52.015Z,4.03
2019-05-29T21:10:20.800Z,4.00
2019-05-29T21:12:49.217Z,4.30
2019-05-29T21:15:17.759Z,5.20
2019-05-29T21:17:47.721Z,5.10
2019-05-29T21:20:16.398Z,4.73
2019-05-29T21:22:45.023Z,4.80
2019-05-29T21:25:18.670Z,5.30
2019-05-29T21:27:48.789Z,5.10
2019-05-29T21:30:14.632Z,7.33
2019-05-29T21:32:43.985Z,6.80
2019-05-29T21:35:12.865Z,5.30
2019-05-29T21:37:42.457Z,4.10
2019-05-29T21:40:11.235Z,4.93
2019-05-29T21:42:40.527Z,4.70
2019-05-29T21:45:09.279Z,4.67
2019-05-29T21:47:38.864Z,4.20
2019-05-29T21:50:08.421Z,4.57
2019-05-29T21:52:37.535Z,4.47
2019-05-29T21:55:06.862Z,4.07
2019-05-29T21:57:35.261Z,4.50
2019-05-29T22:00:06.932Z,4.30
2019-05-29T22:02:35.329Z,4.67
2019-05-29T22:05:05.948Z,4.70
2019-05-29T22:07:34.354Z,4.50
2019-05-29T22:10:03.447Z,4.20
2019-05-29T22:12:31.875Z,4.40
2019-05-29T22:15:01.569Z,4.80
2019-05-29T22:17:30.492Z,5.37
2019-05-29T22:19:59.084Z,5.60
2019-05-29T22:22:27.707Z,5.43
2019-05-29T22:24:57.142Z,8.67
2019-05-29T22:27:25.626Z,8.20
2019-05-29T22:29:55.229Z,7.30
2019-05-29T22:32:23.853Z,6.33
2019-05-29T22:34:53.570Z,5.90
2019-05-29T22:37:22.207Z,6.17
2019-05-29T22:39:51.491Z,6.43
2019-05-29T22:42:20.222Z,5.93
2019-05-29T22:44:48.651Z,6.67
2019-05-29T22:47:17.076Z,8.10
2019-05-29T22:49:45.473Z,7.10
2019-05-29T22:52:16.839Z,6.00
2019-05-29T22:54:45.246Z,5.50
2019-05-29T22:57:13.660Z,5.00
2019-05-29T22:59:42.065Z,5.43
2019-05-29T23:02:12.046Z,5.17
2019-05-29T23:04:40.448Z,4.40
2019-05-29T23:07:08.853Z,4.17
2019-05-29T23:09:37.507Z,4.50
2019-05-29T23:12:05.921Z,4.20
2019-05-29T23:14:34.331Z,4.23
2019-05-29T23:17:03.076Z,4.70
2019-05-29T23:19:31.467Z,4.87
2019-05-29T23:22:01.141Z,5.83
2019-05-29T23:24:29.695Z,5.97
2019-05-29T23:26:58.762Z,7.73
2019-05-29T23:29:27.309Z,7.90
2019-05-29T23:31:56.848Z,7.97
2019-05-29T23:34:25.300Z,8.03
2019-05-29T23:36:54.953Z,7.23
2019-05-29T23:39:23.488Z,6.63
2019-05-29T23:41:53.156Z,5.70
2019-05-29T23:44:21.689Z,5.13
2019-05-29T23:46:50.092Z,4.60
2019-05-29T23:49:20.063Z,4.47
2019-05-29T23:51:48.490Z,4.10
2019-05-29T23:54:16.949Z,4.50
2019-05-29T23:56:45.541Z,5.50
2019-05-29T23:59:13.996Z,5.10
